Air Navigation Services of Czech Republic
Airport: LKPD Updated:  22.04.2021 16:56:24  UTC
 METAR LKPD 22.04. 17:00 ...
METAR LKPD 221700Z 32007KT CAVOK 09/M04 Q1020 NOSIG RMK BLU BLU=
 TAF LKPD 22.04. 11:00 COR
TAF COR LKPD 221100Z 2212/2312 31012KT CAVOK      TEMPO 2212/2220 31014G24KT BKN045      BECMG 2222/2301 28008KT BKN030      BECMG 2306/2308 29012KT BKN040      TEMPO 2306/2312 29012G24KT=